createdAt,value
2023-04-19T00:00:09.474Z,8.95
2023-04-19T00:02:42.721Z,10.00
2023-04-19T00:05:13.931Z,10.27
2023-04-19T00:07:43.490Z,10.63
2023-04-19T00:10:12.610Z,11.52
2023-04-19T00:12:41.699Z,11.80
2023-04-19T00:15:11.347Z,10.90
2023-04-19T00:17:40.460Z,11.20
2023-04-19T00:20:10.749Z,11.13
2023-04-19T00:22:41.317Z,10.38
2023-04-19T00:25:10.638Z,10.73
2023-04-19T00:27:39.666Z,11.10
2023-04-19T00:30:09.612Z,11.55
2023-04-19T00:32:38.720Z,10.35
2023-04-19T00:35:08.580Z,10.73
2023-04-19T00:37:37.676Z,11.43
2023-04-19T00:40:09.666Z,10.35
2023-04-19T00:42:39.297Z,10.57
2023-04-19T00:45:09.533Z,10.18
2023-04-19T00:47:39.679Z,10.52
2023-04-19T00:50:09.923Z,10.35
2023-04-19T00:52:39.042Z,9.60
2023-04-19T00:55:09.972Z,10.43
2023-04-19T00:57:39.343Z,10.30
2023-04-19T01:00:10.419Z,9.57
2023-04-19T01:02:39.766Z,9.38
2023-04-19T01:05:09.649Z,9.45
2023-04-19T01:07:38.865Z,9.82
2023-04-19T01:10:10.045Z,10.38
2023-04-19T01:12:39.066Z,10.48
2023-04-19T01:15:09.550Z,10.35
2023-04-19T01:17:38.865Z,10.73
2023-04-19T01:20:09.248Z,10.90
2023-04-19T01:22:40.279Z,10.45
2023-04-19T01:25:10.588Z,10.98
2023-04-19T01:27:39.624Z,11.18
2023-04-19T01:30:09.952Z,10.57
2023-04-19T01:32:39.038Z,11.00
2023-04-19T01:35:11.141Z,11.00
2023-04-19T01:37:41.581Z,10.70
2023-04-19T01:40:13.290Z,9.90
2023-04-19T01:42:42.446Z,10.65
2023-04-19T01:45:12.003Z,10.85
2023-04-19T01:47:41.162Z,11.25
2023-04-19T01:50:10.986Z,10.82
2023-04-19T01:52:41.508Z,11.73
2023-04-19T01:55:10.859Z,12.00
2023-04-19T01:57:39.887Z,11.75
2023-04-19T02:00:10.905Z,11.32
2023-04-19T02:02:45.617Z,11.27
2023-04-19T02:05:14.895Z,10.50
2023-04-19T02:07:45.297Z,11.35
2023-04-19T02:10:14.349Z,11.47
2023-04-19T02:12:44.460Z,12.80
2023-04-19T02:15:13.799Z,11.20
2023-04-19T02:17:43.541Z,12.48
2023-04-19T02:20:12.822Z,11.73
2023-04-19T02:22:41.896Z,11.90
2023-04-19T02:25:14.468Z,13.65
2023-04-19T02:27:43.485Z,11.88
2023-04-19T02:30:13.375Z,12.27
2023-04-19T02:32:42.572Z,12.60
2023-04-19T02:35:11.617Z,12.45
2023-04-19T02:37:40.633Z,12.73
2023-04-19T02:40:10.593Z,12.88
2023-04-19T02:42:41.114Z,13.35
2023-04-19T02:45:11.103Z,12.32
2023-04-19T02:47:40.356Z,13.88
2023-04-19T02:50:10.572Z,13.95
2023-04-19T02:52:45.848Z,14.38
2023-04-19T02:55:15.030Z,14.13
2023-04-19T02:57:46.010Z,13.50
2023-04-19T03:00:16.115Z,13.73
2023-04-19T03:02:56.232Z,14.80
2023-04-19T03:05:25.472Z,14.07
2023-04-19T03:07:54.724Z,15.15
2023-04-19T03:10:24.003Z,15.38
2023-04-19T03:12:54.490Z,15.07
2023-04-19T03:15:23.530Z,16.42
2023-04-19T03:17:52.653Z,16.42
2023-04-19T03:20:24.073Z,16.48
2023-04-19T03:22:53.303Z,17.67
2023-04-19T03:25:23.392Z,17.00
2023-04-19T03:28:01.918Z,17.13
2023-04-19T03:30:49.257Z,16.83
2023-04-19T03:33:18.343Z,17.40
2023-04-19T03:35:47.697Z,16.40
2023-04-19T03:38:17.986Z,16.38
2023-04-19T03:40:47.925Z,17.00
2023-04-19T03:43:20.048Z,17.75
2023-04-19T03:45:49.311Z,18.02
2023-04-19T03:48:18.487Z,17.70
2023-04-19T03:50:47.521Z,17.73
2023-04-19T03:53:20.020Z,16.65
2023-04-19T03:55:49.109Z,16.85
2023-04-19T03:58:20.254Z,17.08
2023-04-19T04:00:59.659Z,17.00
2023-04-19T04:03:28.973Z,18.10
2023-04-19T04:05:58.274Z,17.40
2023-04-19T04:08:27.513Z,17.88
2023-04-19T04:10:56.574Z,19.35
2023-04-19T04:13:27.126Z,19.65
2023-04-19T04:16:07.979Z,20.58
2023-04-19T04:18:37.573Z,20.10
2023-04-19T04:21:09.921Z,20.02
2023-04-19T04:23:43.024Z,18.92
2023-04-19T04:26:20.173Z,19.48
2023-04-19T04:29:13.581Z,20.33
2023-04-19T04:31:43.884Z,19.83
2023-04-19T04:34:13.281Z,20.67
2023-04-19T04:36:50.742Z,21.80
2023-04-19T04:41:51.949Z,21.33
2023-04-19T04:46:52.535Z,20.60
2023-04-19T04:49:26.978Z,20.50
2023-04-19T04:51:55.988Z,20.90
2023-04-19T04:54:25.370Z,20.40
2023-04-19T04:56:54.469Z,20.88
2023-04-19T04:59:25.734Z,20.05
2023-04-19T05:01:54.861Z,19.60
2023-04-19T05:04:24.508Z,20.25
2023-04-19T05:06:53.543Z,18.52
2023-04-19T05:09:27.162Z,19.50
2023-04-19T05:11:56.339Z,19.45
2023-04-19T05:14:27.558Z,18.73
2023-04-19T05:16:56.892Z,18.30
2023-04-19T05:19:26.028Z,18.90
2023-04-19T05:22:02.125Z,19.02
2023-04-19T05:24:31.214Z,18.08
2023-04-19T05:27:01.870Z,18.38
2023-04-19T05:29:33.194Z,18.87
2023-04-19T05:32:02.590Z,19.05
2023-04-19T05:34:34.623Z,18.92
2023-04-19T05:37:05.093Z,18.27
2023-04-19T05:39:34.191Z,19.52
2023-04-19T05:42:03.298Z,17.73
2023-04-19T05:44:34.051Z,19.13
2023-04-19T05:47:03.348Z,17.98
2023-04-19T05:49:55.318Z,17.80
2023-04-19T05:52:32.363Z,17.58
2023-04-19T05:55:02.754Z,17.73
2023-04-19T05:57:32.634Z,17.17
2023-04-19T06:00:03.363Z,17.70
2023-04-19T06:02:44.721Z,17.58
2023-04-19T06:05:16.218Z,16.95
2023-04-19T06:07:54.496Z,18.05
2023-04-19T06:10:34.023Z,17.48
2023-04-19T06:13:10.226Z,17.90
2023-04-19T06:15:41.227Z,16.40
2023-04-19T06:18:19.022Z,17.70
2023-04-19T06:20:49.007Z,17.42
2023-04-19T06:23:18.744Z,17.45
2023-04-19T06:25:49.116Z,16.48
2023-04-19T06:28:18.346Z,17.07
2023-04-19T06:30:49.583Z,16.90
2023-04-19T06:35:47.408Z,15.65
2023-04-19T06:38:17.604Z,16.52
2023-04-19T06:40:46.821Z,17.10
2023-04-19T06:43:16.178Z,16.33
2023-04-19T06:45:45.442Z,15.45
2023-04-19T06:48:15.966Z,15.20
2023-04-19T06:50:45.113Z,15.05
2023-04-19T06:53:14.323Z,15.57
2023-04-19T06:55:43.489Z,14.80
2023-04-19T06:58:12.518Z,15.18
2023-04-19T07:00:41.829Z,15.48
2023-04-19T07:03:11.243Z,15.80
2023-04-19T07:05:41.883Z,15.60
2023-04-19T07:08:11.111Z,14.23
2023-04-19T07:10:40.219Z,14.45
2023-04-19T07:13:09.215Z,14.75
2023-04-19T07:15:38.461Z,15.02
2023-04-19T07:18:07.697Z,15.57
2023-04-19T07:20:36.816Z,15.27
2023-04-19T07:23:07.247Z,14.88
2023-04-19T07:25:36.345Z,15.20
2023-04-19T07:28:05.701Z,15.15
2023-04-19T07:30:34.753Z,14.40
2023-04-19T07:33:05.072Z,15.05
2023-04-19T07:35:34.249Z,15.00
2023-04-19T07:38:03.430Z,14.90
2023-04-19T07:40:33.856Z,14.45
2023-04-19T07:43:02.991Z,14.38
2023-04-19T07:45:32.391Z,15.43
2023-04-19T07:48:01.560Z,14.98
2023-04-19T07:50:30.776Z,15.60
2023-04-19T07:52:59.918Z,14.73
2023-04-19T07:55:29.048Z,14.77
2023-04-19T07:57:59.512Z,15.02
2023-04-19T08:00:30.008Z,14.90
2023-04-19T08:02:59.150Z,16.48
2023-04-19T08:05:28.781Z,14.93
2023-04-19T08:07:57.940Z,14.68
2023-04-19T08:10:28.852Z,14.57
2023-04-19T08:13:05.798Z,16.23
2023-04-19T08:18:08.202Z,14.40
2023-04-19T08:20:37.570Z,15.23
2023-04-19T08:23:20.717Z,15.85
2023-04-19T08:25:53.474Z,15.65
2023-04-19T08:28:24.747Z,15.27
2023-04-19T08:33:22.895Z,15.32
2023-04-19T08:35:52.050Z,16.70
2023-04-19T08:38:21.400Z,17.30
2023-04-19T08:40:55.113Z,16.50
2023-04-19T08:43:28.940Z,17.42
2023-04-19T08:45:58.793Z,16.35
2023-04-19T08:48:29.376Z,17.50
2023-04-19T08:51:05.632Z,17.30
2023-04-19T08:53:36.729Z,17.70
2023-04-19T08:56:17.901Z,17.77
2023-04-19T08:59:07.563Z,18.27
2023-04-19T09:01:44.680Z,18.50
2023-04-19T09:04:31.730Z,19.67
2023-04-19T09:07:03.286Z,18.13
2023-04-19T09:09:39.057Z,18.42
2023-04-19T09:12:18.344Z,19.17
2023-04-19T09:17:21.132Z,20.48
2023-04-19T09:19:51.059Z,21.20
2023-04-19T09:22:20.276Z,19.58
2023-04-19T09:27:29.995Z,19.67
2023-04-19T09:30:01.877Z,18.73
2023-04-19T09:32:46.203Z,18.58
2023-04-19T09:35:15.356Z,18.77
2023-04-19T09:40:27.118Z,18.85
2023-04-19T09:45:40.190Z,19.60
2023-04-19T09:48:10.277Z,19.38
2023-04-19T09:50:58.571Z,18.92
2023-04-19T09:53:34.477Z,20.02
2023-04-19T09:56:06.865Z,18.42
2023-04-19T09:58:48.957Z,19.52
2023-04-19T10:01:23.796Z,19.95
2023-04-19T10:03:55.307Z,21.73
2023-04-19T10:08:58.884Z,21.15
2023-04-19T10:11:33.043Z,21.05
2023-04-19T10:14:04.222Z,20.90
2023-04-19T10:16:35.726Z,20.88
2023-04-19T10:19:08.705Z,21.52
2023-04-19T10:21:39.771Z,22.40
2023-04-19T10:24:09.655Z,22.38
2023-04-19T10:27:11.549Z,22.85
2023-04-19T10:29:56.913Z,22.00
2023-04-19T10:32:28.921Z,22.23
2023-04-19T10:35:03.914Z,22.98
2023-04-19T10:37:33.281Z,21.15
2023-04-19T10:40:02.465Z,19.05
2023-04-19T10:43:10.999Z,20.27
2023-04-19T10:45:40.649Z,20.17
2023-04-19T10:48:35.215Z,19.85
2023-04-19T10:51:05.536Z,20.67
2023-04-19T10:53:52.845Z,20.50
2023-04-19T10:56:24.363Z,21.23
2023-04-19T10:59:22.463Z,20.52
2023-04-19T11:01:54.107Z,21.08
2023-04-19T11:04:47.216Z,20.40
2023-04-19T11:07:18.370Z,22.02
2023-04-19T11:09:48.911Z,21.38
2023-04-19T11:12:18.923Z,21.55
2023-04-19T11:14:49.764Z,21.60
2023-04-19T11:17:20.724Z,21.20
2023-04-19T11:19:56.872Z,21.88
2023-04-19T11:22:33.576Z,22.38
2023-04-19T11:25:11.100Z,22.98
2023-04-19T11:27:41.223Z,22.02
2023-04-19T11:30:12.518Z,22.70
2023-04-19T11:35:19.437Z,23.73
2023-04-19T11:37:48.668Z,24.60
2023-04-19T11:40:19.139Z,24.27
2023-04-19T11:42:48.585Z,24.63
2023-04-19T11:45:30.051Z,23.52
2023-04-19T11:48:01.155Z,23.50
2023-04-19T11:50:36.578Z,24.17
2023-04-19T11:53:14.440Z,24.25
2023-04-19T11:55:48.150Z,23.95
2023-04-19T11:58:29.509Z,24.88
2023-04-19T12:01:01.070Z,24.77
2023-04-19T12:03:30.335Z,24.13
2023-04-19T12:06:04.571Z,22.88
2023-04-19T12:08:34.954Z,22.70
2023-04-19T12:11:05.844Z,24.77
2023-04-19T12:13:36.454Z,23.15
2023-04-19T12:16:07.180Z,23.13
2023-04-19T12:18:48.794Z,23.33
2023-04-19T12:21:30.762Z,24.20
2023-04-19T12:24:01.780Z,23.40
2023-04-19T12:26:31.398Z,23.58
2023-04-19T12:29:02.744Z,23.60
2023-04-19T12:34:01.979Z,24.50
2023-04-19T12:36:32.451Z,24.88
2023-04-19T12:39:01.506Z,25.00
2023-04-19T12:41:30.651Z,26.45
2023-04-19T12:43:59.724Z,24.88
2023-04-19T12:46:28.873Z,24.85
2023-04-19T12:48:57.956Z,26.10
2023-04-19T12:51:28.130Z,23.80
2023-04-19T12:53:58.647Z,26.35
2023-04-19T12:56:27.733Z,25.90
2023-04-19T12:58:56.842Z,25.63
2023-04-19T13:01:25.944Z,24.98
2023-04-19T13:03:58.150Z,25.05
2023-04-19T13:06:28.286Z,24.42
2023-04-19T13:09:01.185Z,25.05
2023-04-19T13:11:30.777Z,24.45
2023-04-19T13:13:59.820Z,25.48
2023-04-19T13:16:28.914Z,25.60
2023-04-19T13:18:57.929Z,24.55
2023-04-19T13:21:27.995Z,24.30
2023-04-19T13:23:59.187Z,24.95
2023-04-19T13:26:28.352Z,24.05
2023-04-19T13:28:57.564Z,25.98
2023-04-19T13:31:27.117Z,25.42
2023-04-19T13:33:56.524Z,25.17
2023-04-19T13:36:25.546Z,25.45
2023-04-19T13:38:54.664Z,25.55
2023-04-19T13:41:25.080Z,24.52
2023-04-19T13:43:54.112Z,26.00
2023-04-19T13:46:23.266Z,25.73
2023-04-19T13:48:52.323Z,24.00
2023-04-19T13:51:21.386Z,25.58
2023-04-19T13:53:50.442Z,25.55
2023-04-19T13:56:19.494Z,25.40
2023-04-19T13:58:49.936Z,25.92
2023-04-19T14:01:19.272Z,25.45
2023-04-19T14:03:48.628Z,26.83
2023-04-19T14:06:18.111Z,25.67
2023-04-19T14:08:47.836Z,25.85
2023-04-19T14:11:18.140Z,25.90
2023-04-19T14:13:48.365Z,27.10
2023-04-19T14:16:19.121Z,26.88
2023-04-19T14:18:48.260Z,26.60
2023-04-19T14:21:17.401Z,27.30
2023-04-19T14:23:46.633Z,26.00
2023-04-19T14:26:16.533Z,27.10
2023-04-19T14:28:45.621Z,28.38
2023-04-19T14:31:14.660Z,28.38
2023-04-19T14:33:45.084Z,28.15
2023-04-19T14:36:14.409Z,28.98
2023-04-19T14:38:43.513Z,28.70
2023-04-19T14:41:12.528Z,28.92
2023-04-19T14:43:41.691Z,27.88
2023-04-19T14:46:10.876Z,30.30
2023-04-19T14:48:39.992Z,28.90
2023-04-19T14:51:10.527Z,29.25
2023-04-19T14:53:39.575Z,30.70
2023-04-19T14:56:09.504Z,29.42
2023-04-19T14:58:38.634Z,29.58
2023-04-19T15:01:14.369Z,30.63
2023-04-19T15:03:43.752Z,30.92
2023-04-19T15:06:14.373Z,31.50
2023-04-19T15:08:43.947Z,30.37
2023-04-19T15:11:12.988Z,30.23
2023-04-19T15:13:42.041Z,30.95
2023-04-19T15:16:11.256Z,30.25
2023-04-19T15:18:40.636Z,30.92
2023-04-19T15:21:09.845Z,30.33
2023-04-19T15:23:40.781Z,30.88
2023-04-19T15:26:10.708Z,29.55
2023-04-19T15:28:39.723Z,31.73
2023-04-19T15:31:10.356Z,31.73
2023-04-19T15:33:39.509Z,30.90
2023-04-19T15:36:09.003Z,31.80
2023-04-19T15:38:38.418Z,31.65
2023-04-19T15:41:08.860Z,30.40
2023-04-19T15:43:38.147Z,30.47
2023-04-19T15:46:07.283Z,31.13
2023-04-19T15:48:36.446Z,29.80
2023-04-19T15:51:05.820Z,29.40
2023-04-19T15:53:35.151Z,29.17
2023-04-19T15:56:05.163Z,29.10
2023-04-19T15:58:35.569Z,30.13
2023-04-19T16:01:04.703Z,30.50
2023-04-19T16:03:33.932Z,28.50
2023-04-19T16:06:03.358Z,27.65
2023-04-19T16:08:32.517Z,28.15
2023-04-19T16:11:01.591Z,29.42
2023-04-19T16:13:31.555Z,28.63
2023-04-19T16:16:02.492Z,27.92
2023-04-19T16:18:31.583Z,28.85
2023-04-19T16:21:00.736Z,27.75
2023-04-19T16:23:29.787Z,27.38
2023-04-19T16:25:58.939Z,26.25
2023-04-19T16:28:28.124Z,27.77
2023-04-19T16:30:57.174Z,27.10
2023-04-19T16:33:27.640Z,27.63
2023-04-19T16:35:56.826Z,26.58
2023-04-19T16:38:26.256Z,27.52
2023-04-19T16:40:55.914Z,26.17
2023-04-19T16:43:25.041Z,27.38
2023-04-19T16:45:54.256Z,25.85
2023-04-19T16:48:23.486Z,27.48
2023-04-19T16:50:53.939Z,25.67
2023-04-19T16:53:23.180Z,25.33
2023-04-19T16:55:53.498Z,25.95
2023-04-19T17:00:52.285Z,22.95
2023-04-19T17:03:22.087Z,24.58
2023-04-19T17:05:51.278Z,26.83
2023-04-19T17:08:22.314Z,24.35
2023-04-19T17:10:51.608Z,24.20
2023-04-19T17:13:20.995Z,24.48
2023-04-19T17:15:50.131Z,23.98
2023-04-19T17:18:19.459Z,23.77
2023-04-19T17:20:48.759Z,22.98
2023-04-19T17:23:17.900Z,22.88
2023-04-19T17:25:48.374Z,22.65
2023-04-19T17:28:17.846Z,21.53
2023-04-19T17:30:46.963Z,19.75
2023-04-19T17:33:16.069Z,18.52
2023-04-19T17:35:45.251Z,18.80
2023-04-19T17:38:14.355Z,17.77
2023-04-19T17:40:43.412Z,18.60
2023-04-19T17:43:15.115Z,18.20
2023-04-19T17:45:44.209Z,16.40
2023-04-19T17:48:13.351Z,16.55
2023-04-19T17:50:42.427Z,17.00
2023-04-19T17:53:11.711Z,17.13
2023-04-19T17:55:40.811Z,17.38
2023-04-19T17:58:09.962Z,21.38
2023-04-19T18:00:41.001Z,34.92
2023-04-19T18:03:11.417Z,20.35
2023-04-19T18:05:41.028Z,16.67
2023-04-19T18:08:10.182Z,40.30
2023-04-19T18:10:39.238Z,18.45
2023-04-19T18:13:08.329Z,25.45
2023-04-19T18:15:37.530Z,16.35
2023-04-19T18:18:08.326Z,15.85
2023-04-19T18:20:37.555Z,19.23
2023-04-19T18:23:06.534Z,14.20
2023-04-19T18:25:36.986Z,18.27
2023-04-19T18:28:06.928Z,19.80
2023-04-19T18:30:36.169Z,16.17
2023-04-19T18:33:05.308Z,14.45
2023-04-19T18:35:36.710Z,16.25
2023-04-19T18:40:34.641Z,14.57
2023-04-19T18:43:03.778Z,15.50
2023-04-19T18:45:33.254Z,14.20
2023-04-19T18:48:02.632Z,17.48
2023-04-19T18:50:32.300Z,13.65
2023-04-19T18:53:02.760Z,15.20
2023-04-19T18:55:32.220Z,13.65
2023-04-19T18:58:01.673Z,12.85
2023-04-19T19:00:31.449Z,14.10
2023-04-19T19:03:01.997Z,13.55
2023-04-19T19:05:32.459Z,25.20
2023-04-19T19:08:03.445Z,18.63
2023-04-19T19:10:58.818Z,14.65
2023-04-19T19:13:21.658Z,14.98
2023-04-19T19:15:50.880Z,18.63
2023-04-19T19:18:19.968Z,16.88
2023-04-19T19:20:51.256Z,11.15
2023-04-19T19:23:34.635Z,13.95
2023-04-19T19:26:05.089Z,15.77
2023-04-19T19:28:34.539Z,11.68
2023-04-19T19:31:03.982Z,17.15
2023-04-19T19:33:33.311Z,9.15
2023-04-19T19:36:02.460Z,8.88
2023-04-19T19:38:32.972Z,7.95
2023-04-19T19:43:35.076Z,8.23
2023-04-19T19:46:04.317Z,8.85
2023-04-19T19:48:40.326Z,6.40
2023-04-19T19:53:44.918Z,6.60
2023-04-19T19:56:21.427Z,6.78
2023-04-19T19:58:52.436Z,8.52
2023-04-19T20:01:22.484Z,6.07
2023-04-19T20:03:52.736Z,7.57
2023-04-19T20:08:57.425Z,7.30
2023-04-19T20:11:26.700Z,5.68
2023-04-19T20:13:55.869Z,6.18
2023-04-19T20:16:25.122Z,5.75
2023-04-19T20:18:54.519Z,4.85
2023-04-19T20:21:23.529Z,5.18
2023-04-19T20:23:52.749Z,7.32
2023-04-19T20:26:23.170Z,6.13
2023-04-19T20:28:52.706Z,5.00
2023-04-19T20:31:23.859Z,5.22
2023-04-19T20:36:23.497Z,4.63
2023-04-19T20:38:53.231Z,5.47
2023-04-19T20:41:23.667Z,4.72
2023-04-19T20:43:52.704Z,4.80
2023-04-19T20:46:22.057Z,6.60
2023-04-19T20:48:51.251Z,4.72
2023-04-19T20:51:20.330Z,5.07
2023-04-19T20:53:49.480Z,5.95
2023-04-19T20:56:18.477Z,5.30
2023-04-19T20:58:48.872Z,5.40
2023-04-19T21:01:18.150Z,6.37
2023-04-19T21:03:47.786Z,4.40
2023-04-19T21:06:17.121Z,5.22
2023-04-19T21:08:46.209Z,5.43
2023-04-19T21:11:15.244Z,4.72
2023-04-19T21:13:44.252Z,4.50
2023-04-19T21:16:14.736Z,4.65
2023-04-19T21:18:43.773Z,4.10
2023-04-19T21:21:12.792Z,4.75
2023-04-19T21:23:41.828Z,4.47
2023-04-19T21:26:10.875Z,4.22
2023-04-19T21:28:39.981Z,4.70
2023-04-19T21:31:09.118Z,4.10
2023-04-19T21:33:39.666Z,4.50
2023-04-19T21:36:09.271Z,4.07
2023-04-19T21:38:38.294Z,4.15
2023-04-19T21:41:08.391Z,3.97
2023-04-19T21:43:37.627Z,4.53
2023-04-19T21:46:06.793Z,3.78
2023-04-19T21:48:35.905Z,3.40
2023-04-19T21:51:06.688Z,4.78
2023-04-19T21:53:36.373Z,4.60
2023-04-19T21:56:05.805Z,3.67
2023-04-19T21:58:34.883Z,5.00
2023-04-19T22:01:04.083Z,4.78
2023-04-19T22:03:33.341Z,3.58
2023-04-19T22:06:02.643Z,4.22
2023-04-19T22:08:34.030Z,4.30
2023-04-19T22:11:03.658Z,4.80
2023-04-19T22:13:33.580Z,4.13
2023-04-19T22:16:02.833Z,5.22
2023-04-19T22:18:34.645Z,4.43
2023-04-19T22:21:03.733Z,4.75
2023-04-19T22:23:34.181Z,3.90
2023-04-19T22:26:03.346Z,4.50
2023-04-19T22:28:33.813Z,4.00
2023-04-19T22:31:02.961Z,5.00
2023-04-19T22:33:32.000Z,4.82
2023-04-19T22:36:01.087Z,4.20
2023-04-19T22:38:30.184Z,3.90
2023-04-19T22:41:01.105Z,5.32
2023-04-19T22:43:30.155Z,5.30
2023-04-19T22:45:59.240Z,6.47
2023-04-19T22:48:30.175Z,4.72
2023-04-19T22:50:59.249Z,4.47
2023-04-19T22:53:28.329Z,4.07
2023-04-19T22:55:57.338Z,4.20
2023-04-19T22:58:27.772Z,4.28
2023-04-19T23:00:56.944Z,3.60
2023-04-19T23:03:26.131Z,3.90
2023-04-19T23:05:55.484Z,4.60
2023-04-19T23:08:25.033Z,4.00
2023-04-19T23:10:55.098Z,3.53
2023-04-19T23:13:24.137Z,4.90
2023-04-19T23:15:54.780Z,4.45
2023-04-19T23:18:23.883Z,4.22
2023-04-19T23:20:52.958Z,4.65
2023-04-19T23:23:21.961Z,4.07
2023-04-19T23:25:50.997Z,4.53
2023-04-19T23:28:20.027Z,4.68
2023-04-19T23:30:49.175Z,3.90
2023-04-19T23:33:19.632Z,4.18
2023-04-19T23:35:48.665Z,4.83
2023-04-19T23:38:17.847Z,4.45
2023-04-19T23:40:47.013Z,4.18
2023-04-19T23:43:16.053Z,4.18
2023-04-19T23:45:45.154Z,4.22
2023-04-19T23:48:14.249Z,4.25
2023-04-19T23:50:45.215Z,3.55
2023-04-19T23:53:14.380Z,4.32
2023-04-19T23:55:43.392Z,4.32
2023-04-19T23:58:12.381Z,4.15
